Pictou, Canada
Current Conditions -  °F | °C
As of 4:00 AM on Friday 24 Oct 2014 (Local Time) from CYYG Reporting Station
Rain Showers Rain Showers  
Wind Chill: 50°   Ceiling: 1000
Heat Index: 50°   Visibility: 15mi
Dew Point: 48°   Wind: 21mph
Humidity: 94%   Direction: 50°NE
Pressure: 29.76"   Gusts: NA
Location:  45.67°N, 62.7°W
Report Text: CYYG 240700Z 05018KT 15SM -SHRA BKN010 BKN021 OVC045 10/09 A2976 RMK SC5SC2SC1 SLP077
Loading
Personal Weather Stations






























Interactive Weather Map
Tropical Storm Tracking
New forecast layout! Learn more

10-Day Weather Forecast

Advertisements
Track Severe Weather on mobile